Terminal Aerodrome Forecast
Issued by NWS Cleveland, OH

Home | Current Version | Previous Version | Text Only | Print | Product List | Glossary On
Versions: 1 2 3 4 5 6 7 8 9 10 11 12 13 14 15 16 17 18 19 20 21 22 23 24
858
FTUS41 KCLE 221739
TAFTOL
TAF
KTOL 221739Z 2218/2318 VRB03KT P6SM SCT100
     FM230000 04006KT 5SM BR OVC007
     FM231200 03008KT 3SM BR VCSH OVC005=

USA.gov is the U.S. government's official web portal to all federal, state and local government web resources and services.